createdAt,value
2023-04-15T00:00:57.931Z,5.37
2023-04-15T00:03:25.126Z,4.90
2023-04-15T00:05:52.201Z,6.13
2023-04-15T00:08:19.117Z,5.33
2023-04-15T00:10:46.000Z,5.33
2023-04-15T00:13:12.877Z,6.10
2023-04-15T00:15:39.700Z,6.30
2023-04-15T00:18:06.578Z,5.17
2023-04-15T00:20:34.535Z,6.03
2023-04-15T00:23:03.183Z,5.87
2023-04-15T00:25:29.994Z,6.20
2023-04-15T00:27:56.843Z,5.90
2023-04-15T00:30:23.704Z,6.07
2023-04-15T00:32:50.526Z,6.53
2023-04-15T00:35:17.402Z,5.37
2023-04-15T00:37:46.028Z,5.20
2023-04-15T00:40:14.175Z,5.00
2023-04-15T00:42:41.261Z,4.97
2023-04-15T00:45:09.195Z,4.87
2023-04-15T00:47:38.107Z,4.70
2023-04-15T00:50:05.975Z,5.33
2023-04-15T00:52:32.846Z,4.93
2023-04-15T00:55:00.321Z,5.30
2023-04-15T00:57:29.315Z,5.20
2023-04-15T00:59:56.921Z,5.63
2023-04-15T01:02:25.714Z,5.80
2023-04-15T01:04:52.766Z,5.40
2023-04-15T01:07:19.596Z,5.70
2023-04-15T01:09:46.547Z,5.80
2023-04-15T01:12:15.261Z,6.00
2023-04-15T01:14:42.759Z,6.40
2023-04-15T01:17:09.544Z,5.60
2023-04-15T01:19:39.938Z,6.53
2023-04-15T01:22:06.824Z,6.10
2023-04-15T01:24:34.413Z,5.27
2023-04-15T01:27:02.003Z,6.37
2023-04-15T01:29:29.708Z,4.97
2023-04-15T01:31:56.848Z,5.63
2023-04-15T01:34:23.856Z,4.17
2023-04-15T01:36:50.778Z,4.27
2023-04-15T01:39:17.658Z,3.30
2023-04-15T01:41:44.493Z,3.90
2023-04-15T01:44:11.385Z,4.50
2023-04-15T01:46:38.378Z,5.27
2023-04-15T01:49:05.202Z,4.10
2023-04-15T01:51:32.020Z,4.97
2023-04-15T01:53:59.080Z,5.30
2023-04-15T01:56:25.904Z,5.63
2023-04-15T01:58:53.211Z,6.13
2023-04-15T02:01:20.280Z,7.10
2023-04-15T02:03:47.298Z,6.37
2023-04-15T02:06:14.285Z,6.60
2023-04-15T02:08:41.237Z,6.23
2023-04-15T02:11:08.072Z,7.20
2023-04-15T02:13:34.923Z,6.97
2023-04-15T02:16:01.929Z,7.63
2023-04-15T02:18:28.808Z,7.20
2023-04-15T02:20:55.963Z,7.33
2023-04-15T02:23:22.827Z,7.80
2023-04-15T02:25:53.234Z,7.57
2023-04-15T02:28:22.285Z,7.40
2023-04-15T02:30:52.111Z,8.37
2023-04-15T02:33:19.329Z,7.57
2023-04-15T02:35:46.175Z,6.93
2023-04-15T02:38:13.480Z,5.47
2023-04-15T02:40:40.341Z,6.43
2023-04-15T02:43:07.768Z,4.77
2023-04-15T02:45:34.734Z,6.40
2023-04-15T02:48:03.343Z,4.30
2023-04-15T02:50:30.138Z,4.93
2023-04-15T02:52:57.067Z,5.63
2023-04-15T02:55:23.972Z,4.33
2023-04-15T02:57:50.927Z,3.67
2023-04-15T03:00:17.880Z,3.73
2023-04-15T03:02:46.488Z,3.10
2023-04-15T03:05:14.814Z,4.53
2023-04-15T03:07:41.699Z,4.33
2023-04-15T03:10:09.191Z,5.17
2023-04-15T03:12:36.051Z,5.57
2023-04-15T03:15:03.060Z,5.45
2023-04-15T03:17:30.348Z,6.20
2023-04-15T03:19:57.193Z,6.43
2023-04-15T03:22:24.021Z,6.40
2023-04-15T03:24:50.904Z,7.27
2023-04-15T03:27:17.724Z,6.80
2023-04-15T03:29:44.595Z,6.57
2023-04-15T03:32:11.403Z,6.20
2023-04-15T03:34:38.292Z,6.87
2023-04-15T03:37:06.023Z,6.67
2023-04-15T03:39:32.880Z,5.53
2023-04-15T03:41:59.728Z,3.57
2023-04-15T03:44:27.479Z,5.00
2023-04-15T03:46:54.871Z,6.10
2023-04-15T03:49:21.765Z,5.80
2023-04-15T03:51:48.682Z,4.80
2023-04-15T03:54:15.575Z,4.93
2023-04-15T03:56:42.363Z,4.43
2023-04-15T03:59:09.163Z,5.70
2023-04-15T04:01:35.953Z,5.10
2023-04-15T04:04:02.947Z,4.00
2023-04-15T04:06:29.969Z,5.90
2023-04-15T04:08:56.736Z,5.30
2023-04-15T04:11:23.577Z,5.60
2023-04-15T04:13:50.336Z,5.27
2023-04-15T04:16:17.331Z,5.97
2023-04-15T04:18:44.441Z,3.50
2023-04-15T04:21:11.647Z,3.33
2023-04-15T04:23:38.549Z,2.70
2023-04-15T04:26:05.513Z,2.80
2023-04-15T04:28:32.311Z,3.70
2023-04-15T04:30:59.394Z,3.80
2023-04-15T04:33:26.355Z,3.07
2023-04-15T04:35:53.184Z,3.00
2023-04-15T04:38:20.040Z,2.90
2023-04-15T04:40:46.914Z,2.97
2023-04-15T04:43:13.740Z,3.00
2023-04-15T04:45:40.618Z,3.20
2023-04-15T04:48:07.847Z,3.50
2023-04-15T04:50:35.518Z,3.60
2023-04-15T04:53:02.730Z,3.40
2023-04-15T04:55:29.539Z,3.50
2023-04-15T04:57:56.346Z,4.40
2023-04-15T05:00:23.160Z,4.90
2023-04-15T05:02:50.235Z,3.60
2023-04-15T05:05:17.538Z,4.00
2023-04-15T05:07:44.386Z,4.90
2023-04-15T05:10:11.185Z,3.80
2023-04-15T05:12:37.996Z,4.27
2023-04-15T05:15:07.261Z,3.50
2023-04-15T05:17:34.079Z,4.23
2023-04-15T05:20:02.337Z,3.27
2023-04-15T05:22:29.482Z,4.10
2023-04-15T05:24:56.349Z,4.27
2023-04-15T05:27:23.213Z,4.10
2023-04-15T05:29:50.005Z,4.93
2023-04-15T05:32:16.727Z,3.53
2023-04-15T05:34:43.507Z,3.97
2023-04-15T05:37:10.298Z,3.50
2023-04-15T05:39:37.171Z,3.07
2023-04-15T05:42:04.001Z,3.63
2023-04-15T05:44:30.836Z,5.23
2023-04-15T05:46:57.807Z,4.47
2023-04-15T05:49:24.618Z,3.50
2023-04-15T05:51:51.353Z,3.63
2023-04-15T05:54:20.014Z,3.77
2023-04-15T05:56:47.158Z,3.60
2023-04-15T05:59:14.043Z,3.17
2023-04-15T06:01:40.912Z,4.20
2023-04-15T06:04:07.780Z,4.50
2023-04-15T06:06:34.712Z,3.80
2023-04-15T06:09:01.780Z,3.33
2023-04-15T06:11:28.849Z,3.03
2023-04-15T06:13:55.658Z,3.30
2023-04-15T06:16:23.200Z,3.20
2023-04-15T06:18:50.185Z,2.90
2023-04-15T06:21:17.006Z,2.40
2023-04-15T06:23:44.012Z,2.47
2023-04-15T06:26:10.938Z,2.93
2023-04-15T06:28:37.787Z,3.03
2023-04-15T06:31:04.831Z,3.23
2023-04-15T06:33:32.143Z,3.30
2023-04-15T06:35:59.050Z,3.67
2023-04-15T06:38:25.851Z,5.60
2023-04-15T06:40:52.785Z,3.87
2023-04-15T06:43:19.584Z,5.37
2023-04-15T06:45:46.475Z,5.07
2023-04-15T06:48:13.350Z,4.17
2023-04-15T06:50:40.360Z,3.77
2023-04-15T06:53:07.854Z,3.20
2023-04-15T06:55:34.696Z,2.30
2023-04-15T06:58:01.547Z,2.27
2023-04-15T07:00:28.318Z,2.20
2023-04-15T07:02:55.360Z,2.60
2023-04-15T07:05:22.219Z,3.07
2023-04-15T07:07:49.066Z,2.97
2023-04-15T07:10:15.949Z,2.33
2023-04-15T07:12:42.852Z,2.30
2023-04-15T07:15:10.162Z,2.77
2023-04-15T07:17:36.987Z,4.07
2023-04-15T07:20:04.427Z,6.37
2023-04-15T07:22:31.213Z,3.53
2023-04-15T07:24:58.040Z,5.03
2023-04-15T07:27:24.901Z,2.90
2023-04-15T07:29:51.779Z,3.90
2023-04-15T07:32:18.839Z,9.00
2023-04-15T07:34:46.050Z,6.70
2023-04-15T07:37:12.917Z,7.20
2023-04-15T07:39:39.771Z,7.60
2023-04-15T07:42:06.741Z,5.20
2023-04-15T07:44:33.532Z,7.60
2023-04-15T07:47:02.166Z,10.70
2023-04-15T07:49:29.087Z,5.83
2023-04-15T07:51:55.865Z,3.60
2023-04-15T07:54:22.680Z,3.50
2023-04-15T07:56:49.480Z,4.60
2023-04-15T07:59:18.094Z,3.70
2023-04-15T08:01:44.928Z,5.13
2023-04-15T08:04:11.989Z,3.80
2023-04-15T08:06:38.978Z,3.53
2023-04-15T08:09:06.976Z,2.57
2023-04-15T08:11:34.034Z,2.67
2023-04-15T08:14:00.849Z,2.40
2023-04-15T08:16:27.810Z,3.53
2023-04-15T08:18:56.759Z,3.00
2023-04-15T08:21:24.736Z,2.57
2023-04-15T08:23:53.607Z,2.93
2023-04-15T08:26:21.600Z,2.63
2023-04-15T08:28:49.611Z,2.50
2023-04-15T08:31:19.209Z,2.07
2023-04-15T08:33:46.912Z,2.23
2023-04-15T08:36:13.959Z,2.50
2023-04-15T08:38:40.901Z,2.80
2023-04-15T08:41:35.053Z,1.70
2023-04-15T08:44:05.081Z,1.60
2023-04-15T08:46:33.638Z,1.50
2023-04-15T08:49:04.160Z,1.40
2023-04-15T08:51:32.970Z,1.60
2023-04-15T08:54:00.607Z,1.80
2023-04-15T08:56:31.472Z,1.50
2023-04-15T08:58:59.693Z,2.10
2023-04-15T09:01:27.508Z,1.90
2023-04-15T09:03:54.700Z,1.67
2023-04-15T09:06:23.459Z,1.77
2023-04-15T09:08:51.150Z,1.73
2023-04-15T09:11:20.224Z,2.10
2023-04-15T09:13:47.459Z,2.50
2023-04-15T09:16:14.537Z,1.77
2023-04-15T09:18:41.808Z,1.47
2023-04-15T09:21:11.631Z,1.70
2023-04-15T09:23:58.376Z,1.73
2023-04-15T09:26:38.691Z,1.47
2023-04-15T09:29:07.594Z,1.87
2023-04-15T09:31:34.512Z,1.60
2023-04-15T09:34:01.565Z,2.53
2023-04-15T09:36:29.137Z,1.90
2023-04-15T09:39:00.772Z,2.00
2023-04-15T09:41:28.206Z,1.83
2023-04-15T09:43:55.039Z,2.47
2023-04-15T09:46:42.285Z,2.20
2023-04-15T09:49:11.126Z,2.77
2023-04-15T09:51:39.108Z,2.10
2023-04-15T09:54:06.084Z,2.43
2023-04-15T09:56:36.851Z,2.97
2023-04-15T09:59:03.812Z,2.73
2023-04-15T10:01:31.823Z,2.63
2023-04-15T10:03:58.756Z,2.70
2023-04-15T10:06:30.048Z,2.20
2023-04-15T10:09:00.932Z,2.80
2023-04-15T10:11:32.025Z,2.40
2023-04-15T10:13:59.283Z,2.50
2023-04-15T10:16:28.364Z,2.67
2023-04-15T10:18:57.333Z,3.20
2023-04-15T10:21:25.030Z,2.27
2023-04-15T10:23:51.976Z,2.77
2023-04-15T10:26:19.371Z,2.30
2023-04-15T10:28:46.755Z,2.80
2023-04-15T10:31:14.516Z,3.50
2023-04-15T10:33:43.195Z,2.73
2023-04-15T10:36:11.430Z,4.53
2023-04-15T10:38:44.191Z,3.40
2023-04-15T10:41:20.845Z,3.07
2023-04-15T10:43:55.003Z,4.17
2023-04-15T10:46:45.517Z,3.87
2023-04-15T10:49:14.597Z,7.00
2023-04-15T10:51:44.600Z,3.23
2023-04-15T10:54:24.672Z,2.90
2023-04-15T10:57:08.138Z,1.93
2023-04-15T10:59:58.165Z,2.83
2023-04-15T11:02:58.455Z,2.17
2023-04-15T11:05:43.331Z,2.40
2023-04-15T11:08:13.001Z,4.63
2023-04-15T11:10:39.691Z,9.13
2023-04-15T11:13:17.989Z,4.80
2023-04-15T11:15:47.558Z,3.43
2023-04-15T11:18:27.176Z,3.03
2023-04-15T11:20:57.290Z,2.83
2023-04-15T11:23:36.607Z,2.77
2023-04-15T11:26:06.681Z,3.73
2023-04-15T11:28:33.722Z,2.50
2023-04-15T11:31:09.021Z,4.40
2023-04-15T11:33:35.882Z,2.83
2023-04-15T11:36:03.465Z,2.77
2023-04-15T11:38:30.653Z,2.20
2023-04-15T11:40:57.853Z,2.00
2023-04-15T11:43:24.716Z,1.60
2023-04-15T11:46:03.084Z,2.13
2023-04-15T11:48:35.845Z,3.00
2023-04-15T11:51:07.901Z,4.90
2023-04-15T11:53:47.084Z,3.33
2023-04-15T11:56:23.467Z,2.20
2023-04-15T11:58:58.585Z,1.93
2023-04-15T12:01:36.644Z,2.30
2023-04-15T12:04:15.971Z,1.80
2023-04-15T12:06:43.646Z,2.40
2023-04-15T12:09:15.864Z,3.13
2023-04-15T12:11:48.017Z,2.67
2023-04-15T12:14:35.546Z,2.90
2023-04-15T12:17:07.081Z,2.73
2023-04-15T12:19:40.475Z,2.67
2023-04-15T12:22:14.822Z,2.50
2023-04-15T12:24:43.843Z,2.47
2023-04-15T12:27:15.861Z,2.20
2023-04-15T12:29:43.951Z,2.07
2023-04-15T12:32:14.371Z,1.77
2023-04-15T12:34:44.199Z,2.20
2023-04-15T12:37:13.102Z,2.13
2023-04-15T12:39:44.205Z,2.43
2023-04-15T12:42:12.025Z,2.80
2023-04-15T12:44:39.756Z,2.60
2023-04-15T12:47:09.383Z,2.10
2023-04-15T12:49:36.268Z,2.30
2023-04-15T12:52:04.275Z,1.53
2023-04-15T12:54:32.670Z,2.40
2023-04-15T12:57:00.455Z,2.27
2023-04-15T12:59:28.924Z,1.73
2023-04-15T13:01:55.922Z,2.00
2023-04-15T13:04:23.095Z,1.93
2023-04-15T13:06:50.480Z,2.47
2023-04-15T13:09:17.404Z,2.53
2023-04-15T13:11:44.708Z,2.90
2023-04-15T13:14:11.832Z,2.47
2023-04-15T13:16:39.287Z,2.30
2023-04-15T13:19:06.496Z,2.43
2023-04-15T13:21:33.602Z,2.60
2023-04-15T13:24:00.435Z,3.03
2023-04-15T13:26:27.331Z,2.87
2023-04-15T13:28:54.166Z,2.77
2023-04-15T13:31:21.109Z,2.77
2023-04-15T13:33:48.081Z,3.10
2023-04-15T13:36:14.903Z,2.53
2023-04-15T13:38:41.736Z,2.80
2023-04-15T13:41:08.616Z,3.30
2023-04-15T13:43:35.480Z,3.40
2023-04-15T13:46:02.969Z,3.70
2023-04-15T13:48:29.888Z,3.17
2023-04-15T13:50:56.740Z,3.70
2023-04-15T13:53:33.916Z,3.30
2023-04-15T13:56:09.246Z,3.07
2023-04-15T13:58:38.077Z,2.70
2023-04-15T14:01:07.023Z,2.77
2023-04-15T14:03:38.375Z,3.13
2023-04-15T14:06:06.519Z,3.97
2023-04-15T14:08:33.892Z,4.00
2023-04-15T14:11:00.969Z,2.90
2023-04-15T14:13:27.863Z,3.17
2023-04-15T14:15:54.783Z,3.13
2023-04-15T14:18:21.713Z,2.93
2023-04-15T14:20:48.629Z,3.70
2023-04-15T14:23:15.454Z,3.80
2023-04-15T14:25:42.298Z,3.50
2023-04-15T14:28:09.374Z,4.03
2023-04-15T14:30:36.385Z,3.87
2023-04-15T14:33:04.248Z,3.57
2023-04-15T14:35:31.535Z,3.67
2023-04-15T14:37:58.548Z,3.97
2023-04-15T14:40:25.527Z,3.83
2023-04-15T14:42:52.414Z,4.13
2023-04-15T14:45:19.220Z,3.83
2023-04-15T14:47:47.020Z,4.70
2023-04-15T14:50:13.867Z,4.73
2023-04-15T14:52:40.848Z,5.20
2023-04-15T14:55:10.976Z,4.77
2023-04-15T14:57:39.726Z,5.00
2023-04-15T15:00:08.578Z,4.80
2023-04-15T15:02:39.752Z,4.40
2023-04-15T15:05:09.827Z,4.93
2023-04-15T15:07:38.203Z,5.10
2023-04-15T15:10:05.922Z,6.97
2023-04-15T15:12:33.402Z,8.10
2023-04-15T15:15:01.638Z,7.13
2023-04-15T15:17:30.379Z,5.73
2023-04-15T15:19:57.783Z,5.67
2023-04-15T15:22:24.594Z,5.53
2023-04-15T15:24:51.478Z,4.90
2023-04-15T15:27:18.325Z,5.70
2023-04-15T15:29:45.240Z,8.03
2023-04-15T15:32:12.164Z,5.47
2023-04-15T15:34:39.199Z,6.20
2023-04-15T15:37:06.516Z,5.93
2023-04-15T15:39:35.060Z,7.10
2023-04-15T15:42:02.271Z,6.77
2023-04-15T15:44:29.086Z,5.40
2023-04-15T15:46:56.418Z,8.43
2023-04-15T15:49:23.410Z,6.50
2023-04-15T15:51:50.205Z,6.27
2023-04-15T15:54:17.861Z,6.50
2023-04-15T15:56:44.654Z,7.80
2023-04-15T15:59:11.622Z,8.20
2023-04-15T16:01:38.506Z,8.20
2023-04-15T16:04:05.886Z,8.03
2023-04-15T16:06:35.000Z,6.30
2023-04-15T16:09:02.670Z,6.83
2023-04-15T16:11:30.139Z,7.17
2023-04-15T16:13:57.058Z,7.20
2023-04-15T16:16:23.952Z,6.27
2023-04-15T16:18:50.800Z,7.37
2023-04-15T16:21:17.919Z,8.03
2023-04-15T16:23:44.992Z,6.93
2023-04-15T16:26:12.010Z,6.83
2023-04-15T16:28:38.921Z,8.27
2023-04-15T16:31:05.928Z,7.20
2023-04-15T16:33:32.709Z,8.13
2023-04-15T16:35:59.718Z,10.90
2023-04-15T16:38:26.617Z,9.07
2023-04-15T16:40:53.838Z,8.67
2023-04-15T16:43:20.729Z,8.03
2023-04-15T16:45:47.575Z,8.60
2023-04-15T16:48:14.509Z,7.20
2023-04-15T16:50:41.491Z,8.63
2023-04-15T16:53:08.458Z,8.80
2023-04-15T16:55:35.640Z,7.77
2023-04-15T16:58:04.331Z,8.00
2023-04-15T17:00:33.004Z,8.97
2023-04-15T17:03:00.809Z,8.90
2023-04-15T17:05:28.297Z,9.93
2023-04-15T17:07:55.610Z,11.10
2023-04-15T17:10:23.318Z,9.60
2023-04-15T17:12:50.273Z,9.97
2023-04-15T17:15:17.311Z,10.30
2023-04-15T17:17:44.516Z,9.90
2023-04-15T17:20:11.689Z,10.77
2023-04-15T17:22:38.555Z,10.17
2023-04-15T17:25:06.301Z,12.63
2023-04-15T17:27:33.032Z,11.30
2023-04-15T17:29:59.898Z,10.90
2023-04-15T17:32:26.869Z,10.93
2023-04-15T17:34:53.732Z,9.27
2023-04-15T17:37:20.580Z,12.40
2023-04-15T17:39:47.421Z,10.97
2023-04-15T17:42:14.178Z,14.77
2023-04-15T17:44:41.125Z,11.70
2023-04-15T17:47:08.128Z,14.17
2023-04-15T17:49:34.981Z,14.40
2023-04-15T17:52:02.234Z,11.63
2023-04-15T17:54:29.148Z,11.40
2023-04-15T17:56:56.353Z,12.77
2023-04-15T17:59:23.279Z,12.20
2023-04-15T18:01:50.267Z,11.90
2023-04-15T18:04:18.644Z,11.87
2023-04-15T18:06:45.789Z,11.33
2023-04-15T18:09:13.028Z,11.33
2023-04-15T18:11:40.072Z,12.60
2023-04-15T18:14:07.563Z,11.53
2023-04-15T18:16:35.437Z,12.17
2023-04-15T18:19:02.311Z,12.30
2023-04-15T18:21:29.250Z,10.77
2023-04-15T18:23:56.034Z,11.40
2023-04-15T18:26:22.871Z,12.87
2023-04-15T18:28:49.869Z,11.80
2023-04-15T18:31:17.002Z,11.30
2023-04-15T18:33:44.668Z,12.40
2023-04-15T18:36:11.481Z,12.17
2023-04-15T18:38:38.254Z,15.33
2023-04-15T18:41:05.340Z,13.93
2023-04-15T18:43:32.451Z,11.10
2023-04-15T18:46:00.739Z,20.63
2023-04-15T18:48:28.050Z,17.33
2023-04-15T18:50:55.413Z,13.23
2023-04-15T18:53:22.810Z,13.10
2023-04-15T18:55:49.854Z,14.83
2023-04-15T18:58:17.596Z,13.80
2023-04-15T19:00:45.101Z,13.00
2023-04-15T19:03:12.755Z,12.73
2023-04-15T19:05:39.802Z,12.40
2023-04-15T19:08:08.660Z,12.20
2023-04-15T19:10:35.567Z,6.80
2023-04-15T19:13:04.459Z,7.03
2023-04-15T19:15:31.790Z,7.30
2023-04-15T19:17:58.688Z,6.53
2023-04-15T19:20:25.533Z,6.17
2023-04-15T19:22:54.679Z,5.53
2023-04-15T19:25:21.663Z,4.20
2023-04-15T19:27:48.604Z,5.27
2023-04-15T19:30:15.404Z,4.50
2023-04-15T19:32:42.264Z,4.97
2023-04-15T19:35:13.232Z,5.40
2023-04-15T19:37:40.647Z,4.00
2023-04-15T19:40:08.598Z,3.93
2023-04-15T19:42:35.477Z,3.83
2023-04-15T19:45:02.490Z,3.73
2023-04-15T19:47:29.364Z,3.37
2023-04-15T19:49:57.516Z,3.50
2023-04-15T19:52:24.336Z,3.30
2023-04-15T19:54:51.156Z,3.33
2023-04-15T19:57:18.294Z,3.37
2023-04-15T19:59:45.183Z,3.80
2023-04-15T20:02:12.104Z,3.90
2023-04-15T20:04:39.049Z,3.87
2023-04-15T20:07:05.904Z,4.13
2023-04-15T20:09:32.734Z,3.20
2023-04-15T20:12:44.873Z,3.13
2023-04-15T20:14:46.908Z,2.97
2023-04-15T20:17:15.054Z,2.30
2023-04-15T20:19:41.922Z,3.47
2023-04-15T20:22:08.686Z,2.43
2023-04-15T20:24:35.512Z,2.50
2023-04-15T20:27:02.331Z,2.80
2023-04-15T20:29:30.752Z,2.80
2023-04-15T20:31:57.498Z,3.33
2023-04-15T20:34:24.356Z,3.43
2023-04-15T20:36:51.156Z,2.83
2023-04-15T20:39:17.989Z,3.70
2023-04-15T20:41:44.790Z,3.43
2023-04-15T20:44:11.654Z,3.60
2023-04-15T20:46:38.623Z,4.00
2023-04-15T20:49:05.630Z,3.40
2023-04-15T20:51:32.760Z,2.73
2023-04-15T20:53:59.561Z,4.67
2023-04-15T20:56:26.463Z,3.10
2023-04-15T20:58:53.383Z,3.57
2023-04-15T21:01:20.267Z,3.63
2023-04-15T21:03:47.568Z,3.70
2023-04-15T21:06:14.660Z,3.47
2023-04-15T21:08:41.514Z,3.70
2023-04-15T21:11:08.251Z,4.37
2023-04-15T21:13:35.242Z,4.60
2023-04-15T21:16:02.219Z,4.37
2023-04-15T21:18:29.046Z,5.00
2023-04-15T21:21:01.832Z,5.80
2023-04-15T21:23:30.532Z,5.53
2023-04-15T21:25:58.827Z,6.03
2023-04-15T21:28:25.691Z,6.30
2023-04-15T21:30:52.488Z,7.47
2023-04-15T21:33:19.368Z,8.73
2023-04-15T21:35:46.420Z,9.33
2023-04-15T21:38:13.261Z,7.43
2023-04-15T21:40:40.432Z,6.40
2023-04-15T21:43:08.385Z,6.97
2023-04-15T21:45:36.682Z,7.60
2023-04-15T21:48:07.994Z,8.33
2023-04-15T21:50:38.377Z,8.57
2023-04-15T21:53:08.088Z,10.53
2023-04-15T21:55:35.721Z,10.93
2023-04-15T21:58:02.544Z,12.97
2023-04-15T22:00:30.038Z,10.30
2023-04-15T22:02:56.929Z,10.20
2023-04-15T22:05:23.921Z,11.00
2023-04-15T22:07:50.762Z,9.17
2023-04-15T22:10:17.747Z,9.07
2023-04-15T22:12:44.567Z,8.40
2023-04-15T22:15:11.728Z,7.13
2023-04-15T22:17:38.577Z,7.60
2023-04-15T22:20:06.152Z,7.43
2023-04-15T22:22:43.290Z,7.57
2023-04-15T22:25:12.027Z,7.67
2023-04-15T22:27:38.894Z,6.70
2023-04-15T22:30:06.694Z,6.83
2023-04-15T22:32:33.641Z,7.60
2023-04-15T22:35:01.396Z,6.70
2023-04-15T22:37:28.439Z,7.17
2023-04-15T22:39:55.268Z,7.40
2023-04-15T22:42:22.522Z,8.63
2023-04-15T22:44:51.156Z,7.87
2023-04-15T22:47:19.139Z,9.03
2023-04-15T22:49:46.032Z,8.27
2023-04-15T22:52:23.451Z,8.60
2023-04-15T22:54:54.511Z,8.17
2023-04-15T22:57:21.301Z,9.27
2023-04-15T22:59:48.121Z,9.70
2023-04-15T23:02:15.088Z,9.57
2023-04-15T23:04:42.399Z,10.70
2023-04-15T23:07:09.562Z,9.67
2023-04-15T23:09:36.440Z,10.30
2023-04-15T23:12:03.749Z,11.07
2023-04-15T23:14:31.791Z,11.67
2023-04-15T23:16:59.027Z,10.00
2023-04-15T23:19:25.856Z,10.87
2023-04-15T23:21:53.556Z,11.43
2023-04-15T23:24:20.354Z,11.10
2023-04-15T23:26:47.170Z,11.20
2023-04-15T23:29:14.126Z,11.50
2023-04-15T23:31:41.175Z,10.07
2023-04-15T23:34:08.140Z,10.73
2023-04-15T23:36:35.000Z,12.17
2023-04-15T23:39:01.884Z,11.30
2023-04-15T23:41:28.711Z,10.87
2023-04-15T23:43:55.562Z,11.40
2023-04-15T23:46:22.420Z,11.73
2023-04-15T23:48:49.316Z,11.47
2023-04-15T23:51:16.798Z,10.80
2023-04-15T23:53:43.729Z,10.63
2023-04-15T23:56:10.735Z,10.83
2023-04-15T23:58:37.595Z,10.70
